sensor_id;sensor_type;location;lat;lon;timestamp;P1;durP1;ratioP1;P2;durP2;ratioP2
62056;SDS011;48016;50.284;18.860;2023-06-26T00:00:31;6.90;;;4.60;;
62056;SDS011;48016;50.284;18.860;2023-06-26T00:03:18;6.70;;;5.10;;
62056;SDS011;48016;50.284;18.860;2023-06-26T00:05:45;6.20;;;4.50;;
62056;SDS011;48016;50.284;18.860;2023-06-26T00:08:12;6.90;;;4.60;;
62056;SDS011;48016;50.284;18.860;2023-06-26T00:10:38;7.80;;;5.00;;
62056;SDS011;48016;50.284;18.860;2023-06-26T00:13:05;7.80;;;5.00;;
62056;SDS011;48016;50.284;18.860;2023-06-26T00:15:31;7.10;;;4.90;;
62056;SDS011;48016;50.284;18.860;2023-06-26T00:17:58;7.40;;;4.90;;
62056;SDS011;48016;50.284;18.860;2023-06-26T00:20:25;7.70;;;5.20;;
62056;SDS011;48016;50.284;18.860;2023-06-26T00:22:52;8.80;;;5.30;;
62056;SDS011;48016;50.284;18.860;2023-06-26T00:25:20;6.70;;;4.90;;
62056;SDS011;48016;50.284;18.860;2023-06-26T00:27:46;7.20;;;4.80;;
62056;SDS011;48016;50.284;18.860;2023-06-26T00:30:13;10.20;;;4.80;;
62056;SDS011;48016;50.284;18.860;2023-06-26T00:32:40;7.60;;;5.10;;
62056;SDS011;48016;50.284;18.860;2023-06-26T00:35:07;8.20;;;5.10;;
62056;SDS011;48016;50.284;18.860;2023-06-26T00:37:33;6.50;;;4.70;;
62056;SDS011;48016;50.284;18.860;2023-06-26T00:40:00;7.40;;;4.80;;
62056;SDS011;48016;50.284;18.860;2023-06-26T00:42:27;7.30;;;4.80;;
62056;SDS011;48016;50.284;18.860;2023-06-26T00:44:53;9.00;;;4.60;;
62056;SDS011;48016;50.284;18.860;2023-06-26T00:47:20;8.50;;;5.00;;
62056;SDS011;48016;50.284;18.860;2023-06-26T00:49:47;10.30;;;5.60;;
62056;SDS011;48016;50.284;18.860;2023-06-26T00:52:14;8.10;;;5.00;;
62056;SDS011;48016;50.284;18.860;2023-06-26T00:54:40;7.90;;;5.20;;
62056;SDS011;48016;50.284;18.860;2023-06-26T00:57:07;7.50;;;5.20;;
62056;SDS011;48016;50.284;18.860;2023-06-26T00:59:34;8.20;;;5.10;;
62056;SDS011;48016;50.284;18.860;2023-06-26T01:02:02;8.50;;;5.30;;
62056;SDS011;48016;50.284;18.860;2023-06-26T01:04:31;7.20;;;5.10;;
62056;SDS011;48016;50.284;18.860;2023-06-26T01:06:59;8.00;;;5.20;;
62056;SDS011;48016;50.284;18.860;2023-06-26T01:09:27;9.40;;;5.20;;
62056;SDS011;48016;50.284;18.860;2023-06-26T01:12:03;8.70;;;5.20;;
62056;SDS011;48016;50.284;18.860;2023-06-26T01:14:30;7.90;;;5.20;;
62056;SDS011;48016;50.284;18.860;2023-06-26T01:16:59;9.20;;;6.00;;
62056;SDS011;48016;50.284;18.860;2023-06-26T01:19:36;7.00;;;5.20;;
62056;SDS011;48016;50.284;18.860;2023-06-26T01:22:19;8.40;;;5.50;;
62056;SDS011;48016;50.284;18.860;2023-06-26T01:25:23;8.60;;;5.60;;
62056;SDS011;48016;50.284;18.860;2023-06-26T01:28:05;10.10;;;5.80;;
62056;SDS011;48016;50.284;18.860;2023-06-26T01:30:37;10.30;;;6.20;;
62056;SDS011;48016;50.284;18.860;2023-06-26T01:33:07;8.70;;;5.70;;
62056;SDS011;48016;50.284;18.860;2023-06-26T01:35:34;9.90;;;5.80;;
62056;SDS011;48016;50.284;18.860;2023-06-26T01:38:18;9.40;;;6.00;;
62056;SDS011;48016;50.284;18.860;2023-06-26T01:40:46;8.50;;;6.00;;
62056;SDS011;48016;50.284;18.860;2023-06-26T01:43:19;11.00;;;6.40;;
62056;SDS011;48016;50.284;18.860;2023-06-26T01:46:06;10.40;;;6.60;;
62056;SDS011;48016;50.284;18.860;2023-06-26T01:48:44;7.90;;;6.30;;
62056;SDS011;48016;50.284;18.860;2023-06-26T01:51:28;10.10;;;6.10;;
62056;SDS011;48016;50.284;18.860;2023-06-26T01:54:09;11.30;;;6.50;;
62056;SDS011;48016;50.284;18.860;2023-06-26T01:56:40;10.50;;;6.70;;
62056;SDS011;48016;50.284;18.860;2023-06-26T01:59:09;11.70;;;6.90;;
62056;SDS011;48016;50.284;18.860;2023-06-26T02:01:37;10.60;;;7.00;;
62056;SDS011;48016;50.284;18.860;2023-06-26T02:04:04;11.10;;;7.10;;
62056;SDS011;48016;50.284;18.860;2023-06-26T02:06:31;9.80;;;6.60;;
62056;SDS011;48016;50.284;18.860;2023-06-26T02:08:57;9.50;;;6.90;;
62056;SDS011;48016;50.284;18.860;2023-06-26T02:11:24;12.50;;;7.70;;
62056;SDS011;48016;50.284;18.860;2023-06-26T02:13:50;14.00;;;8.00;;
62056;SDS011;48016;50.284;18.860;2023-06-26T02:16:17;10.60;;;7.40;;
62056;SDS011;48016;50.284;18.860;2023-06-26T02:18:44;10.80;;;7.90;;
62056;SDS011;48016;50.284;18.860;2023-06-26T02:21:10;11.90;;;7.90;;
62056;SDS011;48016;50.284;18.860;2023-06-26T02:23:37;13.50;;;8.40;;
62056;SDS011;48016;50.284;18.860;2023-06-26T02:26:04;12.50;;;8.60;;
62056;SDS011;48016;50.284;18.860;2023-06-26T02:28:31;11.60;;;8.40;;
62056;SDS011;48016;50.284;18.860;2023-06-26T02:30:57;12.00;;;8.20;;
62056;SDS011;48016;50.284;18.860;2023-06-26T02:33:24;11.60;;;8.40;;
62056;SDS011;48016;50.284;18.860;2023-06-26T02:35:50;12.70;;;9.20;;
62056;SDS011;48016;50.284;18.860;2023-06-26T02:38:17;12.70;;;9.00;;
62056;SDS011;48016;50.284;18.860;2023-06-26T02:40:44;14.60;;;8.90;;
62056;SDS011;48016;50.284;18.860;2023-06-26T02:43:10;13.70;;;10.30;;
62056;SDS011;48016;50.284;18.860;2023-06-26T02:45:37;12.00;;;9.00;;
62056;SDS011;48016;50.284;18.860;2023-06-26T02:48:03;11.40;;;8.90;;
62056;SDS011;48016;50.284;18.860;2023-06-26T02:50:30;13.00;;;9.10;;
62056;SDS011;48016;50.284;18.860;2023-06-26T02:52:57;12.60;;;8.90;;
62056;SDS011;48016;50.284;18.860;2023-06-26T02:55:23;12.80;;;8.10;;
62056;SDS011;48016;50.284;18.860;2023-06-26T02:57:50;11.00;;;7.90;;
62056;SDS011;48016;50.284;18.860;2023-06-26T03:00:17;11.60;;;8.50;;
62056;SDS011;48016;50.284;18.860;2023-06-26T03:02:43;12.00;;;8.60;;
62056;SDS011;48016;50.284;18.860;2023-06-26T03:05:10;12.40;;;8.70;;
62056;SDS011;48016;50.284;18.860;2023-06-26T03:07:39;12.10;;;8.60;;
62056;SDS011;48016;50.284;18.860;2023-06-26T03:10:06;12.90;;;8.10;;
62056;SDS011;48016;50.284;18.860;2023-06-26T03:12:33;16.30;;;8.80;;
62056;SDS011;48016;50.284;18.860;2023-06-26T03:14:59;11.70;;;8.00;;
62056;SDS011;48016;50.284;18.860;2023-06-26T03:17:26;14.50;;;8.30;;
62056;SDS011;48016;50.284;18.860;2023-06-26T03:19:53;11.30;;;8.50;;
62056;SDS011;48016;50.284;18.860;2023-06-26T03:22:19;11.50;;;8.10;;
62056;SDS011;48016;50.284;18.860;2023-06-26T03:24:46;11.90;;;7.80;;
62056;SDS011;48016;50.284;18.860;2023-06-26T03:27:13;10.50;;;8.10;;
62056;SDS011;48016;50.284;18.860;2023-06-26T03:29:39;11.00;;;7.70;;
62056;SDS011;48016;50.284;18.860;2023-06-26T03:32:06;14.30;;;8.30;;
62056;SDS011;48016;50.284;18.860;2023-06-26T03:34:33;11.10;;;7.70;;
62056;SDS011;48016;50.284;18.860;2023-06-26T03:36:59;12.60;;;8.10;;
62056;SDS011;48016;50.284;18.860;2023-06-26T03:39:26;11.10;;;8.40;;
62056;SDS011;48016;50.284;18.860;2023-06-26T03:41:52;11.70;;;8.50;;
62056;SDS011;48016;50.284;18.860;2023-06-26T03:44:22;10.40;;;7.70;;
62056;SDS011;48016;50.284;18.860;2023-06-26T03:46:48;10.30;;;7.60;;
62056;SDS011;48016;50.284;18.860;2023-06-26T03:49:15;11.50;;;8.30;;
62056;SDS011;48016;50.284;18.860;2023-06-26T03:51:42;12.30;;;8.90;;
62056;SDS011;48016;50.284;18.860;2023-06-26T03:54:08;13.40;;;8.40;;
62056;SDS011;48016;50.284;18.860;2023-06-26T03:56:35;11.90;;;8.50;;
62056;SDS011;48016;50.284;18.860;2023-06-26T03:59:01;10.10;;;7.70;;
62056;SDS011;48016;50.284;18.860;2023-06-26T04:01:29;13.50;;;9.20;;
62056;SDS011;48016;50.284;18.860;2023-06-26T04:03:55;11.10;;;8.30;;
62056;SDS011;48016;50.284;18.860;2023-06-26T04:06:22;12.00;;;8.70;;
62056;SDS011;48016;50.284;18.860;2023-06-26T04:08:48;11.80;;;8.80;;
62056;SDS011;48016;50.284;18.860;2023-06-26T04:11:15;12.80;;;7.70;;
62056;SDS011;48016;50.284;18.860;2023-06-26T04:13:42;12.30;;;8.30;;
62056;SDS011;48016;50.284;18.860;2023-06-26T04:16:08;11.90;;;8.80;;
62056;SDS011;48016;50.284;18.860;2023-06-26T04:18:37;12.00;;;8.70;;
62056;SDS011;48016;50.284;18.860;2023-06-26T04:23:35;10.90;;;7.90;;
62056;SDS011;48016;50.284;18.860;2023-06-26T04:26:01;12.30;;;7.90;;
62056;SDS011;48016;50.284;18.860;2023-06-26T04:28:29;13.40;;;8.90;;
62056;SDS011;48016;50.284;18.860;2023-06-26T04:30:55;10.80;;;8.80;;
62056;SDS011;48016;50.284;18.860;2023-06-26T04:33:22;10.70;;;8.30;;
62056;SDS011;48016;50.284;18.860;2023-06-26T04:35:49;11.50;;;8.60;;
62056;SDS011;48016;50.284;18.860;2023-06-26T04:38:16;11.70;;;8.80;;
62056;SDS011;48016;50.284;18.860;2023-06-26T04:40:43;12.70;;;8.60;;
62056;SDS011;48016;50.284;18.860;2023-06-26T04:43:09;11.60;;;7.80;;
62056;SDS011;48016;50.284;18.860;2023-06-26T04:45:36;10.20;;;8.60;;
62056;SDS011;48016;50.284;18.860;2023-06-26T04:48:03;11.20;;;7.80;;
62056;SDS011;48016;50.284;18.860;2023-06-26T04:50:32;13.30;;;8.90;;
62056;SDS011;48016;50.284;18.860;2023-06-26T04:52:59;11.30;;;8.70;;
62056;SDS011;48016;50.284;18.860;2023-06-26T04:55:26;9.90;;;8.30;;
62056;SDS011;48016;50.284;18.860;2023-06-26T05:02:46;10.60;;;8.40;;
62056;SDS011;48016;50.284;18.860;2023-06-26T05:05:13;10.90;;;8.60;;
62056;SDS011;48016;50.284;18.860;2023-06-26T05:07:41;11.80;;;8.70;;
62056;SDS011;48016;50.284;18.860;2023-06-26T05:10:08;11.30;;;8.20;;
62056;SDS011;48016;50.284;18.860;2023-06-26T05:12:34;10.70;;;8.50;;
62056;SDS011;48016;50.284;18.860;2023-06-26T05:15:01;12.30;;;8.40;;
62056;SDS011;48016;50.284;18.860;2023-06-26T05:17:29;11.00;;;8.70;;
62056;SDS011;48016;50.284;18.860;2023-06-26T05:19:55;10.00;;;8.20;;
62056;SDS011;48016;50.284;18.860;2023-06-26T05:22:22;9.30;;;7.90;;
62056;SDS011;48016;50.284;18.860;2023-06-26T05:27:17;9.50;;;8.20;;
62056;SDS011;48016;50.284;18.860;2023-06-26T05:29:48;10.10;;;7.50;;
62056;SDS011;48016;50.284;18.860;2023-06-26T05:32:16;10.60;;;7.40;;
62056;SDS011;48016;50.284;18.860;2023-06-26T05:34:46;9.90;;;7.40;;
62056;SDS011;48016;50.284;18.860;2023-06-26T05:37:17;15.60;;;7.50;;
62056;SDS011;48016;50.284;18.860;2023-06-26T05:39:49;13.50;;;9.40;;
62056;SDS011;48016;50.284;18.860;2023-06-26T05:42:16;11.00;;;8.20;;
62056;SDS011;48016;50.284;18.860;2023-06-26T05:44:43;12.80;;;9.30;;
62056;SDS011;48016;50.284;18.860;2023-06-26T05:47:09;12.30;;;9.30;;
62056;SDS011;48016;50.284;18.860;2023-06-26T05:49:36;13.40;;;8.50;;
62056;SDS011;48016;50.284;18.860;2023-06-26T05:52:03;10.20;;;8.00;;
62056;SDS011;48016;50.284;18.860;2023-06-26T05:54:30;11.30;;;8.00;;
62056;SDS011;48016;50.284;18.860;2023-06-26T05:56:57;11.60;;;8.30;;
62056;SDS011;48016;50.284;18.860;2023-06-26T05:59:26;9.70;;;7.80;;
62056;SDS011;48016;50.284;18.860;2023-06-26T06:01:53;10.20;;;7.60;;
62056;SDS011;48016;50.284;18.860;2023-06-26T06:04:20;10.60;;;7.20;;
62056;SDS011;48016;50.284;18.860;2023-06-26T06:06:47;9.00;;;6.70;;
62056;SDS011;48016;50.284;18.860;2023-06-26T06:09:13;9.40;;;6.50;;
62056;SDS011;48016;50.284;18.860;2023-06-26T06:11:40;10.10;;;6.90;;
62056;SDS011;48016;50.284;18.860;2023-06-26T06:14:07;8.80;;;7.20;;
62056;SDS011;48016;50.284;18.860;2023-06-26T06:21:29;12.00;;;8.70;;
62056;SDS011;48016;50.284;18.860;2023-06-26T06:23:56;11.30;;;7.90;;
62056;SDS011;48016;50.284;18.860;2023-06-26T06:28:49;13.20;;;8.40;;
62056;SDS011;48016;50.284;18.860;2023-06-26T06:31:16;11.10;;;8.10;;
62056;SDS011;48016;50.284;18.860;2023-06-26T06:36:10;14.40;;;7.70;;
62056;SDS011;48016;50.284;18.860;2023-06-26T06:38:36;13.60;;;7.50;;
62056;SDS011;48016;50.284;18.860;2023-06-26T06:41:03;10.20;;;7.10;;
62056;SDS011;48016;50.284;18.860;2023-06-26T06:43:29;11.80;;;6.90;;
62056;SDS011;48016;50.284;18.860;2023-06-26T06:45:56;11.20;;;6.70;;
62056;SDS011;48016;50.284;18.860;2023-06-26T06:48:22;14.90;;;7.50;;
62056;SDS011;48016;50.284;18.860;2023-06-26T06:50:49;10.60;;;6.50;;
62056;SDS011;48016;50.284;18.860;2023-06-26T06:53:17;8.80;;;6.30;;
62056;SDS011;48016;50.284;18.860;2023-06-26T06:55:46;9.40;;;6.30;;
62056;SDS011;48016;50.284;18.860;2023-06-26T06:58:13;10.10;;;6.10;;
62056;SDS011;48016;50.284;18.860;2023-06-26T07:00:39;10.80;;;6.60;;
62056;SDS011;48016;50.284;18.860;2023-06-26T07:03:06;9.30;;;6.00;;
62056;SDS011;48016;50.284;18.860;2023-06-26T07:05:33;8.60;;;6.00;;
62056;SDS011;48016;50.284;18.860;2023-06-26T07:07:59;9.20;;;5.40;;
62056;SDS011;48016;50.284;18.860;2023-06-26T07:10:26;10.70;;;6.40;;
62056;SDS011;48016;50.284;18.860;2023-06-26T07:12:53;9.30;;;6.20;;
62056;SDS011;48016;50.284;18.860;2023-06-26T07:15:19;12.70;;;7.10;;
62056;SDS011;48016;50.284;18.860;2023-06-26T07:20:12;8.40;;;6.50;;
62056;SDS011;48016;50.284;18.860;2023-06-26T07:22:42;11.30;;;6.60;;
62056;SDS011;48016;50.284;18.860;2023-06-26T07:25:11;9.10;;;6.60;;
62056;SDS011;48016;50.284;18.860;2023-06-26T07:27:38;11.30;;;6.50;;
62056;SDS011;48016;50.284;18.860;2023-06-26T07:30:06;9.60;;;6.50;;
62056;SDS011;48016;50.284;18.860;2023-06-26T07:32:37;9.70;;;6.60;;
62056;SDS011;48016;50.284;18.860;2023-06-26T07:35:04;13.60;;;7.10;;
62056;SDS011;48016;50.284;18.860;2023-06-26T07:37:31;12.30;;;6.60;;
62056;SDS011;48016;50.284;18.860;2023-06-26T07:39:58;9.50;;;6.10;;
62056;SDS011;48016;50.284;18.860;2023-06-26T07:42:25;9.30;;;6.10;;
62056;SDS011;48016;50.284;18.860;2023-06-26T07:47:18;8.80;;;6.00;;
62056;SDS011;48016;50.284;18.860;2023-06-26T07:49:44;7.00;;;6.00;;
62056;SDS011;48016;50.284;18.860;2023-06-26T07:52:11;10.20;;;5.90;;
62056;SDS011;48016;50.284;18.860;2023-06-26T07:54:38;7.70;;;5.90;;
62056;SDS011;48016;50.284;18.860;2023-06-26T07:57:05;8.70;;;6.00;;
62056;SDS011;48016;50.284;18.860;2023-06-26T07:59:35;7.60;;;5.50;;
62056;SDS011;48016;50.284;18.860;2023-06-26T08:02:02;8.60;;;6.60;;
62056;SDS011;48016;50.284;18.860;2023-06-26T08:04:29;7.60;;;5.10;;
62056;SDS011;48016;50.284;18.860;2023-06-26T08:06:58;6.70;;;5.60;;
62056;SDS011;48016;50.284;18.860;2023-06-26T08:09:26;8.10;;;5.50;;
62056;SDS011;48016;50.284;18.860;2023-06-26T08:11:54;6.90;;;5.20;;
62056;SDS011;48016;50.284;18.860;2023-06-26T08:14:21;6.90;;;5.00;;
62056;SDS011;48016;50.284;18.860;2023-06-26T08:16:49;7.20;;;4.90;;
62056;SDS011;48016;50.284;18.860;2023-06-26T08:19:16;6.70;;;4.50;;
62056;SDS011;48016;50.284;18.860;2023-06-26T08:21:44;6.80;;;4.40;;
62056;SDS011;48016;50.284;18.860;2023-06-26T08:24:11;5.10;;;4.00;;
62056;SDS011;48016;50.284;18.860;2023-06-26T08:26:39;5.40;;;4.40;;
62056;SDS011;48016;50.284;18.860;2023-06-26T08:29:06;4.90;;;4.40;;
62056;SDS011;48016;50.284;18.860;2023-06-26T08:31:35;6.10;;;4.20;;
62056;SDS011;48016;50.284;18.860;2023-06-26T08:34:03;7.50;;;4.40;;
62056;SDS011;48016;50.284;18.860;2023-06-26T08:36:31;5.10;;;3.70;;
62056;SDS011;48016;50.284;18.860;2023-06-26T08:38:58;4.40;;;3.80;;
62056;SDS011;48016;50.284;18.860;2023-06-26T08:43:51;4.60;;;3.50;;
62056;SDS011;48016;50.284;18.860;2023-06-26T08:46:19;4.60;;;3.50;;
62056;SDS011;48016;50.284;18.860;2023-06-26T08:48:50;5.10;;;3.80;;
62056;SDS011;48016;50.284;18.860;2023-06-26T08:51:23;7.60;;;3.90;;
62056;SDS011;48016;50.284;18.860;2023-06-26T08:53:55;5.20;;;3.60;;
62056;SDS011;48016;50.284;18.860;2023-06-26T08:56:22;4.40;;;4.00;;
62056;SDS011;48016;50.284;18.860;2023-06-26T08:58:51;5.40;;;3.60;;
62056;SDS011;48016;50.284;18.860;2023-06-26T09:01:20;7.90;;;4.40;;
62056;SDS011;48016;50.284;18.860;2023-06-26T09:03:47;6.20;;;4.60;;
62056;SDS011;48016;50.284;18.860;2023-06-26T09:08:40;5.30;;;4.50;;
62056;SDS011;48016;50.284;18.860;2023-06-26T09:11:07;8.30;;;4.70;;
62056;SDS011;48016;50.284;18.860;2023-06-26T09:13:33;6.20;;;5.00;;
62056;SDS011;48016;50.284;18.860;2023-06-26T09:16:04;5.00;;;4.30;;
62056;SDS011;48016;50.284;18.860;2023-06-26T09:18:34;5.60;;;4.40;;
62056;SDS011;48016;50.284;18.860;2023-06-26T09:21:06;7.00;;;4.60;;
62056;SDS011;48016;50.284;18.860;2023-06-26T09:23:34;5.70;;;4.50;;
62056;SDS011;48016;50.284;18.860;2023-06-26T09:26:10;6.30;;;4.00;;
62056;SDS011;48016;50.284;18.860;2023-06-26T09:28:38;5.00;;;4.10;;
62056;SDS011;48016;50.284;18.860;2023-06-26T09:31:07;5.60;;;4.30;;
62056;SDS011;48016;50.284;18.860;2023-06-26T09:33:34;6.20;;;4.50;;
62056;SDS011;48016;50.284;18.860;2023-06-26T09:36:09;6.90;;;4.80;;
62056;SDS011;48016;50.284;18.860;2023-06-26T09:38:46;5.10;;;4.30;;
62056;SDS011;48016;50.284;18.860;2023-06-26T09:43:48;5.30;;;4.30;;
62056;SDS011;48016;50.284;18.860;2023-06-26T09:46:17;7.10;;;4.80;;
62056;SDS011;48016;50.284;18.860;2023-06-26T09:49:12;6.00;;;4.50;;
62056;SDS011;48016;50.284;18.860;2023-06-26T09:51:39;6.00;;;4.50;;
62056;SDS011;48016;50.284;18.860;2023-06-26T09:54:08;5.10;;;4.10;;
62056;SDS011;48016;50.284;18.860;2023-06-26T09:56:36;5.50;;;4.30;;
62056;SDS011;48016;50.284;18.860;2023-06-26T09:59:04;5.70;;;4.50;;
62056;SDS011;48016;50.284;18.860;2023-06-26T10:01:31;5.80;;;4.20;;
62056;SDS011;48016;50.284;18.860;2023-06-26T10:03:59;4.80;;;4.30;;
62056;SDS011;48016;50.284;18.860;2023-06-26T10:06:36;5.50;;;4.40;;
62056;SDS011;48016;50.284;18.860;2023-06-26T10:09:05;5.20;;;4.00;;
62056;SDS011;48016;50.284;18.860;2023-06-26T10:14:21;7.70;;;4.30;;
62056;SDS011;48016;50.284;18.860;2023-06-26T10:16:49;13.60;;;4.70;;
62056;SDS011;48016;50.284;18.860;2023-06-26T10:19:18;8.80;;;5.10;;
62056;SDS011;48016;50.284;18.860;2023-06-26T10:21:51;8.80;;;4.80;;
62056;SDS011;48016;50.284;18.860;2023-06-26T10:24:20;6.50;;;4.10;;
62056;SDS011;48016;50.284;18.860;2023-06-26T10:26:49;6.80;;;4.40;;
62056;SDS011;48016;50.284;18.860;2023-06-26T10:29:18;6.00;;;4.50;;
62056;SDS011;48016;50.284;18.860;2023-06-26T10:31:50;5.80;;;4.40;;
62056;SDS011;48016;50.284;18.860;2023-06-26T10:34:22;5.00;;;4.00;;
62056;SDS011;48016;50.284;18.860;2023-06-26T10:36:58;7.30;;;4.40;;
62056;SDS011;48016;50.284;18.860;2023-06-26T10:39:32;5.20;;;4.60;;
62056;SDS011;48016;50.284;18.860;2023-06-26T10:42:11;6.20;;;4.70;;
62056;SDS011;48016;50.284;18.860;2023-06-26T10:47:10;6.10;;;4.10;;
62056;SDS011;48016;50.284;18.860;2023-06-26T10:49:37;5.20;;;4.20;;
62056;SDS011;48016;50.284;18.860;2023-06-26T10:52:06;6.00;;;4.40;;
62056;SDS011;48016;50.284;18.860;2023-06-26T10:54:32;6.20;;;4.80;;
62056;SDS011;48016;50.284;18.860;2023-06-26T10:56:59;5.80;;;4.60;;
62056;SDS011;48016;50.284;18.860;2023-06-26T10:59:29;5.30;;;4.20;;
62056;SDS011;48016;50.284;18.860;2023-06-26T11:10:07;6.90;;;4.40;;
62056;SDS011;48016;50.284;18.860;2023-06-26T11:17:35;6.10;;;4.30;;
62056;SDS011;48016;50.284;18.860;2023-06-26T11:20:05;5.60;;;4.60;;
62056;SDS011;48016;50.284;18.860;2023-06-26T11:22:34;6.50;;;4.60;;
62056;SDS011;48016;50.284;18.860;2023-06-26T11:25:03;6.30;;;4.10;;
62056;SDS011;48016;50.284;18.860;2023-06-26T11:27:40;6.60;;;4.90;;
62056;SDS011;48016;50.284;18.860;2023-06-26T11:30:09;7.60;;;4.90;;
62056;SDS011;48016;50.284;18.860;2023-06-26T11:32:37;6.10;;;4.40;;
62056;SDS011;48016;50.284;18.860;2023-06-26T11:35:04;9.80;;;5.00;;
62056;SDS011;48016;50.284;18.860;2023-06-26T11:37:32;5.20;;;4.50;;
62056;SDS011;48016;50.284;18.860;2023-06-26T11:40:04;5.80;;;4.60;;
62056;SDS011;48016;50.284;18.860;2023-06-26T11:42:42;6.30;;;4.40;;
62056;SDS011;48016;50.284;18.860;2023-06-26T11:45:10;5.40;;;4.80;;
62056;SDS011;48016;50.284;18.860;2023-06-26T11:47:38;6.10;;;4.40;;
62056;SDS011;48016;50.284;18.860;2023-06-26T11:50:05;7.50;;;4.90;;
62056;SDS011;48016;50.284;18.860;2023-06-26T11:52:34;5.40;;;4.10;;
62056;SDS011;48016;50.284;18.860;2023-06-26T11:55:01;6.50;;;5.00;;
62056;SDS011;48016;50.284;18.860;2023-06-26T11:57:28;8.10;;;4.80;;
62056;SDS011;48016;50.284;18.860;2023-06-26T11:59:56;7.20;;;5.10;;
62056;SDS011;48016;50.284;18.860;2023-06-26T12:02:23;6.50;;;4.70;;
62056;SDS011;48016;50.284;18.860;2023-06-26T12:04:50;5.50;;;4.50;;
62056;SDS011;48016;50.284;18.860;2023-06-26T12:09:44;8.30;;;4.40;;
62056;SDS011;48016;50.284;18.860;2023-06-26T12:12:14;6.80;;;4.50;;
62056;SDS011;48016;50.284;18.860;2023-06-26T12:14:43;6.20;;;4.40;;
62056;SDS011;48016;50.284;18.860;2023-06-26T12:19:43;6.20;;;4.30;;
62056;SDS011;48016;50.284;18.860;2023-06-26T12:22:11;6.30;;;4.90;;
62056;SDS011;48016;50.284;18.860;2023-06-26T12:24:38;6.10;;;4.10;;
62056;SDS011;48016;50.284;18.860;2023-06-26T12:27:09;7.40;;;4.90;;
62056;SDS011;48016;50.284;18.860;2023-06-26T12:29:38;6.40;;;4.30;;
62056;SDS011;48016;50.284;18.860;2023-06-26T12:32:09;6.00;;;4.50;;
62056;SDS011;48016;50.284;18.860;2023-06-26T12:34:38;6.40;;;4.60;;
62056;SDS011;48016;50.284;18.860;2023-06-26T12:37:08;7.40;;;4.30;;
62056;SDS011;48016;50.284;18.860;2023-06-26T12:39:49;5.50;;;4.60;;
62056;SDS011;48016;50.284;18.860;2023-06-26T12:42:18;5.60;;;4.30;;
62056;SDS011;48016;50.284;18.860;2023-06-26T12:44:47;9.00;;;4.60;;
62056;SDS011;48016;50.284;18.860;2023-06-26T12:47:14;7.30;;;4.40;;
62056;SDS011;48016;50.284;18.860;2023-06-26T12:49:44;6.40;;;4.50;;
62056;SDS011;48016;50.284;18.860;2023-06-26T12:52:12;5.60;;;4.20;;
62056;SDS011;48016;50.284;18.860;2023-06-26T12:54:40;5.30;;;4.30;;
62056;SDS011;48016;50.284;18.860;2023-06-26T12:57:09;5.80;;;4.50;;
62056;SDS011;48016;50.284;18.860;2023-06-26T12:59:37;6.80;;;4.20;;
62056;SDS011;48016;50.284;18.860;2023-06-26T13:02:04;6.90;;;4.70;;
62056;SDS011;48016;50.284;18.860;2023-06-26T13:04:32;5.60;;;4.30;;
62056;SDS011;48016;50.284;18.860;2023-06-26T13:06:59;6.30;;;4.80;;
62056;SDS011;48016;50.284;18.860;2023-06-26T13:09:26;6.10;;;4.40;;
62056;SDS011;48016;50.284;18.860;2023-06-26T13:11:54;5.50;;;4.30;;
62056;SDS011;48016;50.284;18.860;2023-06-26T13:14:21;6.20;;;4.60;;
62056;SDS011;48016;50.284;18.860;2023-06-26T13:16:48;6.20;;;4.30;;
62056;SDS011;48016;50.284;18.860;2023-06-26T13:19:14;4.90;;;4.10;;
62056;SDS011;48016;50.284;18.860;2023-06-26T13:24:08;5.40;;;4.20;;
62056;SDS011;48016;50.284;18.860;2023-06-26T13:26:35;5.80;;;4.20;;
62056;SDS011;48016;50.284;18.860;2023-06-26T13:29:02;6.30;;;4.60;;
62056;SDS011;48016;50.284;18.860;2023-06-26T13:31:29;5.10;;;4.60;;
62056;SDS011;48016;50.284;18.860;2023-06-26T13:33:57;5.60;;;4.30;;
62056;SDS011;48016;50.284;18.860;2023-06-26T13:36:24;6.30;;;3.90;;
62056;SDS011;48016;50.284;18.860;2023-06-26T13:38:51;6.00;;;4.30;;
62056;SDS011;48016;50.284;18.860;2023-06-26T13:41:22;6.40;;;4.40;;
62056;SDS011;48016;50.284;18.860;2023-06-26T13:43:52;7.50;;;4.40;;
62056;SDS011;48016;50.284;18.860;2023-06-26T13:46:19;5.80;;;4.30;;
62056;SDS011;48016;50.284;18.860;2023-06-26T13:48:46;5.90;;;4.30;;
62056;SDS011;48016;50.284;18.860;2023-06-26T13:51:13;7.50;;;4.30;;
62056;SDS011;48016;50.284;18.860;2023-06-26T13:53:40;5.70;;;4.30;;
62056;SDS011;48016;50.284;18.860;2023-06-26T13:56:06;5.30;;;4.30;;
62056;SDS011;48016;50.284;18.860;2023-06-26T13:58:34;7.70;;;4.90;;
62056;SDS011;48016;50.284;18.860;2023-06-26T14:01:02;6.00;;;4.50;;
62056;SDS011;48016;50.284;18.860;2023-06-26T14:03:30;7.40;;;5.00;;
62056;SDS011;48016;50.284;18.860;2023-06-26T14:10:50;6.30;;;4.00;;
62056;SDS011;48016;50.284;18.860;2023-06-26T14:13:17;6.80;;;4.70;;
62056;SDS011;48016;50.284;18.860;2023-06-26T14:15:43;5.30;;;4.30;;
62056;SDS011;48016;50.284;18.860;2023-06-26T14:18:10;4.90;;;4.20;;
62056;SDS011;48016;50.284;18.860;2023-06-26T14:20:37;5.30;;;4.20;;
62056;SDS011;48016;50.284;18.860;2023-06-26T14:23:03;5.50;;;4.60;;
62056;SDS011;48016;50.284;18.860;2023-06-26T14:27:57;7.60;;;4.50;;
62056;SDS011;48016;50.284;18.860;2023-06-26T14:30:24;5.00;;;4.00;;
62056;SDS011;48016;50.284;18.860;2023-06-26T14:32:51;5.50;;;4.30;;
62056;SDS011;48016;50.284;18.860;2023-06-26T14:35:19;5.10;;;3.90;;
62056;SDS011;48016;50.284;18.860;2023-06-26T14:37:45;7.10;;;4.30;;
62056;SDS011;48016;50.284;18.860;2023-06-26T14:40:12;4.40;;;3.70;;
62056;SDS011;48016;50.284;18.860;2023-06-26T14:42:39;5.60;;;3.90;;
62056;SDS011;48016;50.284;18.860;2023-06-26T14:45:06;5.20;;;4.20;;
62056;SDS011;48016;50.284;18.860;2023-06-26T14:47:33;6.40;;;4.50;;
62056;SDS011;48016;50.284;18.860;2023-06-26T14:50:00;4.90;;;3.80;;
62056;SDS011;48016;50.284;18.860;2023-06-26T15:09:32;5.80;;;4.40;;
62056;SDS011;48016;50.284;18.860;2023-06-26T15:11:59;6.70;;;4.20;;
62056;SDS011;48016;50.284;18.860;2023-06-26T15:14:25;7.50;;;4.80;;
62056;SDS011;48016;50.284;18.860;2023-06-26T15:16:52;6.90;;;4.70;;
62056;SDS011;48016;50.284;18.860;2023-06-26T15:19:19;5.20;;;4.50;;
62056;SDS011;48016;50.284;18.860;2023-06-26T15:21:45;5.70;;;4.50;;
62056;SDS011;48016;50.284;18.860;2023-06-26T15:24:12;6.60;;;5.00;;
62056;SDS011;48016;50.284;18.860;2023-06-26T15:26:38;6.40;;;4.80;;
62056;SDS011;48016;50.284;18.860;2023-06-26T15:29:05;6.50;;;4.80;;
62056;SDS011;48016;50.284;18.860;2023-06-26T15:31:31;6.10;;;4.40;;
62056;SDS011;48016;50.284;18.860;2023-06-26T15:33:58;5.50;;;4.40;;
62056;SDS011;48016;50.284;18.860;2023-06-26T15:36:25;5.80;;;4.60;;
62056;SDS011;48016;50.284;18.860;2023-06-26T15:38:52;7.80;;;4.80;;
62056;SDS011;48016;50.284;18.860;2023-06-26T15:41:19;5.90;;;4.90;;
62056;SDS011;48016;50.284;18.860;2023-06-26T15:43:46;6.80;;;4.70;;
62056;SDS011;48016;50.284;18.860;2023-06-26T15:46:12;7.00;;;4.60;;
62056;SDS011;48016;50.284;18.860;2023-06-26T15:48:39;7.20;;;5.20;;
62056;SDS011;48016;50.284;18.860;2023-06-26T15:51:05;6.40;;;4.90;;
62056;SDS011;48016;50.284;18.860;2023-06-26T15:53:36;5.30;;;4.50;;
62056;SDS011;48016;50.284;18.860;2023-06-26T15:56:08;5.80;;;5.00;;
62056;SDS011;48016;50.284;18.860;2023-06-26T15:58:37;5.20;;;4.40;;